»·PEaware :: AAL2017 KPSP-KMFR

AAL2017 :: KPSP-KMFR

FLIGHT INFORMATION

Flight Status: Arrived
Operator:
American Airlines
More flights by this operator :: More flights under this callsign
Pilot: Jordan S. (14404)
Aircraft: BOEING 737-800
(B738)
More flights by this aircraft type
Origin: KPSP Palm Springs Intl
United States
Destination: KMFR Rogue Valley Intl-Medford
United States
More flights between these airports :: More routes between these airports
Route: CATH1 PSP V386 PMD LANDO J65 RBL ZUNAS
File this flight plan on PilotEdge
Remarks:
Altitude:
(Current/Filed)
28,000ft
Speed:
(Current/Filed)
440kts
Departed: 22-Sep-17 08:40 PM
Arrived: 22-Sep-17 10:34 PM
Distance/Time
Traveled:
594nm/1:53
Distance/Time
To Go:
Arrived

Flight Plot

Page will automatically refresh every two minutes.

Flight plan parsing failed; only flown route is shown


Map Options




Map Legend


Flown Route
Filed Route
Departure Airport
Arrival Airport
Navaid (VOR, NDB)
Fix

Horizontal Profiles

Position Reports

Time Latitude Longitude Heading Altitude Ground
Speed
22-Sep-17 19:58 33.822522 -116.506223 324 413ft 0kts
22-Sep-17 19:59 33.822522 -116.506223 324 413ft 0kts
22-Sep-17 20:00 33.822522 -116.506223 324 413ft 0kts
22-Sep-17 20:01 33.822522 -116.506223 324 413ft 0kts
22-Sep-17 20:02 33.822522 -116.506223 324 413ft 0kts
22-Sep-17 20:03 33.822522 -116.506223 324 413ft 0kts
22-Sep-17 20:04 33.822522 -116.506223 324 413ft 0kts
22-Sep-17 20:05 33.822522 -116.506223 324 413ft 0kts
22-Sep-17 20:06 33.822522 -116.506223 324 413ft 0kts
22-Sep-17 20:07 33.822522 -116.506223 324 413ft 0kts
22-Sep-17 20:08 33.822522 -116.506223 324 413ft 0kts
22-Sep-17 20:09 33.822522 -116.506223 324 413ft 0kts
22-Sep-17 20:10 33.822522 -116.506223 324 413ft 0kts
22-Sep-17 20:11 33.822522 -116.506223 324 413ft 0kts
22-Sep-17 20:12 33.822522 -116.506223 324 413ft 0kts
22-Sep-17 20:13 33.822522 -116.506223 324 413ft 0kts
22-Sep-17 20:14 33.822522 -116.506223 324 413ft 0kts
22-Sep-17 20:15 33.822522 -116.506223 324 413ft 0kts
22-Sep-17 20:16 33.822522 -116.506223 324 413ft 0kts
22-Sep-17 20:17 33.822522 -116.506223 324 413ft 0kts
22-Sep-17 20:18 33.822522 -116.506223 324 413ft 0kts
22-Sep-17 20:19 33.822522 -116.506223 324 413ft 0kts
22-Sep-17 20:20 33.822522 -116.506223 324 413ft 0kts
22-Sep-17 20:21 33.822581 -116.506267 341 413ft 1kts
22-Sep-17 20:22 33.822483 -116.505728 121 413ft 0kts
22-Sep-17 20:23 33.822483 -116.505728 121 413ft 0kts
22-Sep-17 20:24 33.822483 -116.505728 121 413ft 0kts
22-Sep-17 20:25 33.822483 -116.505728 121 413ft 0kts
22-Sep-17 20:26 33.822483 -116.505728 121 413ft 0kts
22-Sep-17 20:27 33.822483 -116.505728 121 413ft 0kts
22-Sep-17 20:28 33.822483 -116.505728 121 413ft 0kts
22-Sep-17 20:29 33.822419 -116.505345 63 413ft 0kts
22-Sep-17 20:30 33.822419 -116.505345 63 413ft 0kts
22-Sep-17 20:31 33.822419 -116.505345 63 413ft 0kts
22-Sep-17 20:32 33.822419 -116.505345 63 413ft 0kts
22-Sep-17 20:33 33.822419 -116.505345 63 413ft 0kts
22-Sep-17 20:34 33.822419 -116.505345 63 413ft 0kts
22-Sep-17 20:35 33.822419 -116.505345 63 413ft 0kts
22-Sep-17 20:36 33.822419 -116.505344 63 413ft 0kts
22-Sep-17 20:37 33.822627 -116.504943 56 413ft 11kts
22-Sep-17 20:38 33.818954 -116.500177 139 402ft 19kts
22-Sep-17 20:39 33.818582 -116.499585 106 400ft 0kts
22-Sep-17 20:40 33.818305 -116.497752 101 396ft 0kts
22-Sep-17 20:41 33.818064 -116.497855 268 396ft 9kts
22-Sep-17 20:42 33.818349 -116.498197 334 397ft 0kts
22-Sep-17 20:43 33.818350 -116.498198 335 397ft 0kts
22-Sep-17 20:44 33.818402 -116.498355 342 976ft 113kts
22-Sep-17 20:45 33.819376 -116.498514 323 485ft 15kts
22-Sep-17 20:46 33.835504 -116.512808 324 532ft 141kts
22-Sep-17 20:47 33.870427 -116.544280 319 2733ft 180kts
22-Sep-17 20:48 33.908669 -116.578179 351 6108ft 168kts
22-Sep-17 20:49 33.931171 -116.540225 120 8815ft 180kts
22-Sep-17 20:50 33.899076 -116.487768 122 11092ft 223kts
22-Sep-17 20:51 33.897829 -116.416186 30 13185ft 282kts
22-Sep-17 20:52 33.978505 -116.399880 12 15331ft 305kts
22-Sep-17 20:53 34.064586 -116.392082 330 17721ft 337kts
22-Sep-17 20:54 34.109677 -116.492305 291 20342ft 363kts
22-Sep-17 20:55 34.146594 -116.609060 291 22870ft 382kts
22-Sep-17 20:56 34.184644 -116.729247 290 25349ft 390kts
22-Sep-17 20:57 34.223083 -116.851036 290 27801ft 388kts
22-Sep-17 20:58 34.265421 -116.978747 292 28028ft 444kts
22-Sep-17 20:59 34.314913 -117.126687 292 28012ft 499kts
22-Sep-17 21:00 34.368050 -117.279693 293 28000ft 492kts
22-Sep-17 21:01 34.421374 -117.431116 293 28000ft 492kts
22-Sep-17 21:02 34.475108 -117.583126 293 27999ft 492kts
22-Sep-17 21:03 34.528498 -117.734209 292 28000ft 492kts
22-Sep-17 21:04 34.582338 -117.886434 293 28000ft 492kts
22-Sep-17 21:05 34.631142 -118.040629 287 28005ft 493kts
22-Sep-17 21:06 34.673219 -118.197459 296 27968ft 492kts
22-Sep-17 21:07 34.781913 -118.287727 320 27941ft 471kts
22-Sep-17 21:08 34.861406 -118.396659 310 28007ft 427kts
22-Sep-17 21:09 34.939827 -118.510439 310 28001ft 447kts
22-Sep-17 21:10 35.017325 -118.614512 326 28000ft 404kts
22-Sep-17 21:11 35.086590 -118.664367 330 28003ft 418kts
22-Sep-17 21:12 35.135694 -118.697431 331 27998ft 415kts
22-Sep-17 21:13 35.236765 -118.764571 331 27999ft 416kts
22-Sep-17 21:14 35.338050 -118.831815 331 28000ft 416kts
22-Sep-17 21:15 35.439094 -118.899075 331 28000ft 416kts
22-Sep-17 21:16 35.540367 -118.966680 331 28000ft 416kts
22-Sep-17 21:17 35.638364 -119.040352 325 28000ft 416kts
22-Sep-17 21:18 35.732944 -119.120271 322 27995ft 416kts
22-Sep-17 21:19 35.816809 -119.215304 316 28000ft 416kts
22-Sep-17 21:20 35.901158 -119.312215 320 27995ft 416kts
22-Sep-17 21:21 36.003301 -119.374258 343 28002ft 416kts
22-Sep-17 21:22 36.111528 -119.422679 338 28000ft 416kts
22-Sep-17 21:23 36.200234 -119.466847 338 28000ft 416kts
22-Sep-17 21:24 36.324739 -119.529686 338 28000ft 416kts
22-Sep-17 21:25 36.413500 -119.574665 338 28000ft 416kts
22-Sep-17 21:26 36.520293 -119.628934 338 28000ft 416kts
22-Sep-17 21:27 36.626347 -119.682986 337 28000ft 416kts
22-Sep-17 21:28 36.732649 -119.737326 337 28000ft 416kts
22-Sep-17 21:29 36.839030 -119.791871 337 28000ft 416kts
22-Sep-17 21:30 36.934333 -119.870910 320 28000ft 416kts
22-Sep-17 21:31 37.021792 -119.964361 319 28000ft 416kts
22-Sep-17 21:32 37.108211 -120.058336 319 27999ft 416kts
22-Sep-17 21:33 37.194978 -120.153104 319 28000ft 416kts
22-Sep-17 21:34 37.281548 -120.247965 319 28000ft 416kts
22-Sep-17 21:35 37.368191 -120.343211 319 28000ft 416kts
22-Sep-17 21:36 37.454664 -120.438574 319 28000ft 416kts
22-Sep-17 21:37 37.541241 -120.534356 319 28000ft 416kts
22-Sep-17 21:38 37.627425 -120.630011 319 28000ft 416kts
22-Sep-17 21:39 37.713190 -120.725504 318 28000ft 416kts
22-Sep-17 21:40 37.799287 -120.821678 318 28000ft 416kts
22-Sep-17 21:41 37.885267 -120.918033 318 28000ft 416kts
22-Sep-17 21:42 37.971360 -121.014829 318 28000ft 416kts
22-Sep-17 21:43 38.057268 -121.111735 318 28000ft 416kts
22-Sep-17 21:44 38.142976 -121.208730 318 28000ft 416kts
22-Sep-17 21:45 38.228503 -121.305838 318 28000ft 416kts
22-Sep-17 21:46 38.314233 -121.403499 318 28000ft 416kts
22-Sep-17 21:47 38.400055 -121.501590 318 27999ft 416kts
22-Sep-17 21:48 38.499614 -121.572587 341 28003ft 416kts
22-Sep-17 21:49 38.608878 -121.618322 342 28000ft 416kts
22-Sep-17 21:50 38.717900 -121.662731 342 28000ft 416kts
22-Sep-17 21:51 38.827298 -121.707317 342 28000ft 416kts
22-Sep-17 21:52 38.936701 -121.752042 342 28000ft 416kts
22-Sep-17 21:53 39.046154 -121.796933 342 28000ft 416kts
22-Sep-17 21:54 39.155679 -121.842002 342 28000ft 416kts
22-Sep-17 21:55 39.265141 -121.887192 342 28000ft 416kts
22-Sep-17 21:56 39.374497 -121.932485 342 28000ft 416kts
22-Sep-17 21:57 39.484122 -121.978039 342 28000ft 416kts
22-Sep-17 21:58 39.593314 -122.023564 342 28000ft 416kts
22-Sep-17 21:59 39.702561 -122.069263 342 28000ft 416kts
22-Sep-17 22:00 39.812235 -122.115295 342 28000ft 416kts
22-Sep-17 22:01 39.922303 -122.161648 342 28010ft 427kts
22-Sep-17 22:02 40.039948 -122.211366 342 28023ft 477kts
22-Sep-17 22:03 40.168288 -122.248634 4 27960ft 479kts
22-Sep-17 22:04 40.270310 -122.155470 44 27991ft 450kts
22-Sep-17 22:05 40.389777 -122.144917 326 28007ft 501kts
22-Sep-17 22:06 40.470282 -122.290205 307 27979ft 488kts
22-Sep-17 22:07 40.578042 -122.395851 340 27958ft 489kts
22-Sep-17 22:08 40.702191 -122.442200 345 27976ft 440kts
22-Sep-17 22:09 40.809794 -122.479442 345 27961ft 360kts
22-Sep-17 22:10 40.902762 -122.511634 345 28018ft 360kts
22-Sep-17 22:11 40.998566 -122.544904 345 28000ft 356kts
22-Sep-17 22:12 41.089878 -122.576707 345 27965ft 320kts
22-Sep-17 22:13 41.173977 -122.606071 345 27663ft 308kts
22-Sep-17 22:14 41.256650 -122.635019 345 25878ft 303kts
22-Sep-17 22:15 41.345123 -122.666085 344 23769ft 372kts
22-Sep-17 22:16 41.450701 -122.703270 344 21527ft 416kts
22-Sep-17 22:17 41.559802 -122.741826 344 18847ft 374kts
22-Sep-17 22:18 41.649121 -122.773493 344 16704ft 305kts
22-Sep-17 22:19 41.724094 -122.800143 345 16027ft 269kts
22-Sep-17 22:20 41.799841 -122.827134 344 14219ft 314kts
22-Sep-17 22:21 41.884011 -122.804618 38 12147ft 352kts
22-Sep-17 22:22 41.957036 -122.713788 44 10395ft 324kts
22-Sep-17 22:23 42.003631 -122.628489 67 8628ft 275kts
22-Sep-17 22:24 42.047659 -122.558096 27 8489ft 244kts
22-Sep-17 22:25 42.103159 -122.567001 316 8036ft 209kts
22-Sep-17 22:26 42.148225 -122.615593 331 6965ft 222kts
22-Sep-17 22:27 42.195241 -122.674591 310 5325ft 244kts
22-Sep-17 22:28 42.235815 -122.745659 300 3923ft 216kts
22-Sep-17 22:29 42.265679 -122.804670 315 2829ft 161kts
22-Sep-17 22:30 42.297336 -122.836080 314 2613ft 137kts
22-Sep-17 22:31 42.328993 -122.847567 339 2149ft 136kts
22-Sep-17 22:32 42.362818 -122.866729 337 1383ft 130kts
22-Sep-17 22:33 42.396697 -122.900422 268 2350ft 186kts
22-Sep-17 22:34 42.364497 -122.944650 186 3051ft 179kts
22-Sep-17 22:35 42.316422 -122.929687 155 3516ft 176kts
22-Sep-17 22:36 42.309664 -122.879499 35 3573ft 189kts
22-Sep-17 22:37 42.356546 -122.863632 338 1507ft 176kts
22-Sep-17 22:38 42.376483 -122.874356 280 1340ft 6kts
22-Sep-17 22:39 42.376266 -122.875260 269 1340ft 0kts
22-Sep-17 22:40 42.377290 -122.876074 337 1340ft 0kts

Navigation Log

Ident Type
Flight plan parsing failed, navigation log unavailable